ENCN/KRS METAR and TAF weather

Enter ICAO airport designator
Station Type Date Time Source
ENCN METAR 2019/02/20 07:20 UTC NOAA

ENCN 200720Z 06005KT CAVOK M01/M01 Q1011


Station Type Date Time Source
ENCN Decoded METAR 2019/02/20 07:20 UTC NOAA

Kristiansand / Kjevik, Norway (ENCN) 58-12N 008-05E 17M
Feb 20, 2019 - 02:20 AM EST / 2019.02.20 0720 UTC
Wind: from the ENE (060 degrees) at 6 MPH (5 KT):0
Visibility: greater than 7 mile(s):0
Temperature: 30 F (-1 C)
Windchill: 23 F (-5 C):1
Dew Point: 30 F (-1 C)
Relative Humidity: 100%
Pressure (altimeter): 29.85 in. Hg (1011 hPa)
ob: ENCN 200720Z 06005KT CAVOK M01/M01 Q1011
cycle: 7

Station Type Date Time Source
ENCN TAF 2016/05/06 12:39 UTC NOAA

TAF TAF ENCN 061100Z 0612/0712 14008KT 9999 FEW040


Example: see airport list